»·PEaware :: RNGR725 KNGP-KNGP

RNGR725 :: KNGP-KNGP

FLIGHT INFORMATION

Flight Status: Arrived
Operator: Unknown
More flights by this operator :: More flights under this callsign
Pilot: USN Avenger (31125)
Aircraft: BEECH AIRCRAFT T-6A TEXAN
(TEX2)
More flights by this aircraft type
Origin: KNGP Corpus Christi NAS/Truax
United States
Destination: KNGP Corpus Christi NAS/Truax
United States
More flights between these airports :: More routes between these airports
Route: COURSE RULES KINGS4
File this flight plan on PilotEdge
Remarks:
Altitude:
(Current/Filed)
14,500ft
Speed:
(Current/Filed)
240kts
Departed: 14-Nov-23 06:55 AM
Arrived: 14-Nov-23 07:27 AM
Distance/Time
Traveled:
0nm/0:32
Distance/Time
To Go:
Arrived

Flight Plot

Page will automatically refresh every two minutes.

Flight plan parsing failed; only flown route is shown


Map Options




Map Legend


Flown Route
Filed Route
Departure Airport
Arrival Airport
Navaid (VOR, NDB)
Fix

Horizontal Profiles

Position Reports

Time Latitude Longitude Heading Altitude Ground
Speed
14-Nov-23 06:18 27.698526 -97.284277 159 22ft 0kts
14-Nov-23 06:19 27.698524 -97.284277 159 22ft 0kts
14-Nov-23 06:20 27.698523 -97.284276 159 22ft 0kts
14-Nov-23 06:21 27.698521 -97.284275 159 22ft 0kts
14-Nov-23 06:22 27.698520 -97.284275 159 22ft 0kts
14-Nov-23 06:23 27.698518 -97.284274 159 22ft 0kts
14-Nov-23 06:24 27.698516 -97.284273 159 22ft 0kts
14-Nov-23 06:25 27.698515 -97.284272 159 22ft 0kts
14-Nov-23 06:26 27.698513 -97.284272 159 22ft 0kts
14-Nov-23 06:27 27.698512 -97.284271 159 22ft 0kts
14-Nov-23 06:28 27.698510 -97.284270 159 22ft 0kts
14-Nov-23 06:29 27.698509 -97.284270 159 22ft 0kts
14-Nov-23 06:30 27.698507 -97.284269 159 22ft 0kts
14-Nov-23 06:31 27.698505 -97.284268 159 22ft 0kts
14-Nov-23 06:32 27.698504 -97.284268 159 22ft 0kts
14-Nov-23 06:33 27.698502 -97.284267 159 22ft 0kts
14-Nov-23 06:34 27.698501 -97.284266 159 22ft 0kts
14-Nov-23 06:35 27.698499 -97.284266 159 22ft 0kts
14-Nov-23 06:36 27.698498 -97.284265 159 22ft 0kts
14-Nov-23 06:37 27.698496 -97.284264 159 22ft 0kts
14-Nov-23 06:38 27.698494 -97.284264 159 22ft 0kts
14-Nov-23 06:39 27.698493 -97.284263 159 22ft 0kts
14-Nov-23 06:40 27.698491 -97.284262 159 22ft 0kts
14-Nov-23 06:41 27.698490 -97.284262 159 22ft 0kts
14-Nov-23 06:42 27.698488 -97.284261 159 22ft 0kts
14-Nov-23 06:43 27.698486 -97.284260 159 22ft 0kts
14-Nov-23 06:44 27.698485 -97.284259 159 22ft 0kts
14-Nov-23 06:45 27.698483 -97.284259 159 22ft 0kts
14-Nov-23 06:46 27.698233 -97.285451 338 22ft 8kts
14-Nov-23 06:47 27.698625 -97.287402 224 22ft 17kts
14-Nov-23 06:48 27.696080 -97.290646 228 22ft 0kts
14-Nov-23 06:49 27.695815 -97.290996 225 22ft 0kts
14-Nov-23 06:50 27.695814 -97.290997 225 22ft 0kts
14-Nov-23 06:51 27.695734 -97.291090 224 22ft 0kts
14-Nov-23 06:52 27.695594 -97.291235 219 22ft 9kts
14-Nov-23 06:53 27.694609 -97.291054 133 22ft 14kts
14-Nov-23 06:54 27.674778 -97.263360 124 728ft 165kts
14-Nov-23 06:55 27.665129 -97.210406 38 1381ft 177kts
14-Nov-23 06:56 27.713978 -97.214388 340 3910ft 189kts
14-Nov-23 06:57 27.767809 -97.228708 345 5558ft 233kts
14-Nov-23 06:58 27.834652 -97.251383 343 5599ft 249kts
14-Nov-23 06:59 27.902965 -97.257844 9 5996ft 247kts
14-Nov-23 07:00 27.962830 -97.248993 6 8900ft 210kts
14-Nov-23 07:01 28.019646 -97.240202 4 11371ft 204kts
14-Nov-23 07:02 28.075749 -97.235057 0 13579ft 207kts
14-Nov-23 07:03 28.130263 -97.204675 32 14498ft 248kts
14-Nov-23 07:04 28.191886 -97.157793 30 14577ft 279kts
14-Nov-23 07:05 28.265792 -97.150845 334 14720ft 284kts
14-Nov-23 07:06 28.335750 -97.198198 325 13890ft 300kts
14-Nov-23 07:07 28.401123 -97.246399 330 11446ft 267kts
14-Nov-23 07:08 28.452079 -97.290445 276 8176ft 226kts
14-Nov-23 07:09 28.405577 -97.319504 166 5144ft 241kts
14-Nov-23 07:10 28.337560 -97.303400 169 2623ft 235kts
14-Nov-23 07:11 28.272879 -97.293438 179 2539ft 237kts
14-Nov-23 07:12 28.208055 -97.285829 146 2675ft 235kts
14-Nov-23 07:13 28.152175 -97.244240 147 2550ft 244kts
14-Nov-23 07:14 28.092926 -97.208602 158 2593ft 241kts
14-Nov-23 07:15 28.030547 -97.180123 157 2617ft 243kts
14-Nov-23 07:16 27.968184 -97.155560 153 1675ft 208kts
14-Nov-23 07:17 27.916762 -97.128462 177 983ft 215kts
14-Nov-23 07:18 27.859484 -97.151370 203 1017ft 222kts
14-Nov-23 07:19 27.798978 -97.165371 186 831ft 239kts
14-Nov-23 07:20 27.740494 -97.184205 231 1077ft 219kts
14-Nov-23 07:21 27.728381 -97.248849 260 1032ft 210kts
14-Nov-23 07:22 27.702997 -97.296221 158 908ft 202kts
14-Nov-23 07:23 27.697436 -97.268666 314 841ft 132kts
14-Nov-23 07:24 27.711826 -97.297683 228 341ft 100kts
14-Nov-23 07:25 27.689611 -97.285426 132 23ft 58kts
14-Nov-23 07:26 27.687510 -97.281687 42 22ft 0kts
14-Nov-23 07:27 27.687546 -97.281649 44 22ft 4kts
14-Nov-23 07:28 27.689779 -97.283110 311 22ft 15kts
14-Nov-23 07:29 27.691949 -97.285596 326 22ft 9kts
14-Nov-23 07:30 27.694265 -97.285000 336 22ft 7kts
14-Nov-23 07:31 27.695383 -97.285523 337 22ft 0kts
14-Nov-23 07:32 27.695383 -97.285523 337 22ft 0kts
14-Nov-23 07:33 27.695383 -97.285523 337 22ft 0kts
14-Nov-23 07:34 27.695383 -97.285523 337 22ft 0kts
14-Nov-23 07:35 27.695383 -97.285523 337 22ft 0kts
14-Nov-23 07:36 27.695383 -97.285523 337 22ft 0kts

Navigation Log

Ident Type
Flight plan parsing failed, navigation log unavailable